Time;durP1;ratioP1;P1;durP2;ratioP2;P2;SDS_P1;SDS_P2;PMS_P1;PMS_P2;Temp;Humidity;BMP_temperature;BMP_pressure;BME280_temperature;BME280_humidity;BME280_pressure;Samples;Min_cycle;Max_cycle;Signal;HPM_P1;HPM_P2
2021/07/16 00:00:15;;;;;;;6.45;4.35;;;;;;;19.53;65.99;96689.44;4984380;28;20650;-62
2021/07/16 00:02:44;;;;;;;5.93;4.80;;;;;;;19.71;65.86;96710.69;4983286;28;20062;-63
2021/07/16 00:05:12;;;;;;;6.65;4.53;;;;;;;19.36;67.43;96710.28;4983446;28;20066;-62
2021/07/16 00:07:40;;;;;;;8.85;4.78;;;;;;;19.44;67.47;96716.53;4988842;28;20523;-62
2021/07/16 00:10:10;;;;;;;5.57;4.18;;;;;;;17.39;66.92;96370.72;5002515;28;20137;-63
2021/07/16 00:12:38;;;;;;;6.15;4.20;;;;;;;19.50;67.03;96704.34;5004261;28;20058;-63
2021/07/16 00:15:06;;;;;;;6.65;4.55;;;;;;;19.38;66.92;96702.22;5002576;28;20068;-61
2021/07/16 00:17:33;;;;;;;6.68;3.90;;;;;;;19.42;66.34;96708.56;5004080;28;20100;-61
2021/07/16 00:20:00;;;;;;;9.48;4.22;;;;;;;18.70;66.09;96591.81;5002865;28;20339;-61
2021/07/16 00:22:27;;;;;;;6.40;3.67;;;;;;;19.23;66.06;96681.28;5003190;28;20054;-62
2021/07/16 00:24:54;;;;;;;7.57;4.15;;;;;;;19.21;66.03;96675.28;5002759;28;20079;-62
2021/07/16 00:27:21;;;;;;;12.05;4.03;;;;;;;19.23;65.40;96683.28;5003639;28;20133;-61
2021/07/16 00:29:48;;;;;;;6.97;3.63;;;;;;;19.32;65.51;96686.31;5002733;28;20057;-63
2021/07/16 00:32:14;;;;;;;6.57;3.83;;;;;;;19.29;65.78;96687.97;5003387;28;20060;-62
2021/07/16 00:34:41;;;;;;;6.50;4.00;;;;;;;19.08;65.81;96677.19;5003724;28;20077;-62
2021/07/16 00:37:08;;;;;;;7.38;3.90;;;;;;;18.62;65.95;96581.97;5003455;28;20628;-63
2021/07/16 00:39:36;;;;;;;6.57;4.15;;;;;;;19.11;65.98;96679.13;5003700;28;20823;-63
2021/07/16 00:42:03;;;;;;;8.05;4.10;;;;;;;19.10;65.94;96690.78;5002392;28;20057;-62
2021/07/16 00:44:33;;;;;;;6.00;3.75;;;;;;;19.22;66.12;96693.72;5004263;28;20081;-63
2021/07/16 00:47:00;;;;;;;9.57;3.80;;;;;;;19.19;65.17;96688.97;5003573;28;20073;-62
2021/07/16 00:49:28;;;;;;;10.90;3.95;;;;;;;19.13;65.60;96689.91;5002039;28;20089;-63
2021/07/16 00:51:55;;;;;;;6.22;3.75;;;;;;;18.96;65.72;96675.06;5003619;28;20140;-62
2021/07/16 00:54:22;;;;;;;9.43;4.43;;;;;;;18.59;65.86;96622.13;5002273;28;20050;-63
2021/07/16 00:56:50;;;;;;;9.43;4.28;;;;;;;19.09;65.93;96690.03;5003131;28;20054;-63
2021/07/16 00:59:17;;;;;;;9.07;3.88;;;;;;;18.94;65.67;96649.44;5003966;28;20543;-62
2021/07/16 01:01:46;;;;;;;5.05;3.95;;;;;;;18.95;65.76;96645.38;5002219;28;20068;-62
2021/07/16 01:04:14;;;;;;;9.00;4.70;;;;;;;19.23;66.04;96681.28;5001931;28;20057;-61
2021/07/16 01:06:41;;;;;;;7.55;4.50;;;;;;;19.00;65.94;96681.38;5001602;28;20080;-62
2021/07/16 01:09:08;;;;;;;7.70;3.95;;;;;;;18.96;65.16;96652.59;4984666;28;20410;-61
2021/07/16 01:11:35;;;;;;;6.80;3.90;;;;;;;19.24;64.31;96684.84;4981834;28;20054;-62
2021/07/16 01:14:02;;;;;;;6.47;4.35;;;;;;;19.30;64.41;96681.13;4981949;28;20133;-62
2021/07/16 01:16:29;;;;;;;6.32;3.70;;;;;;;18.80;64.69;96635.72;4984131;28;20046;-62
2021/07/16 01:18:58;;;;;;;6.68;3.50;;;;;;;19.03;64.47;96649.63;4984214;28;20682;-62
2021/07/16 01:21:27;;;;;;;6.82;3.95;;;;;;;19.05;63.97;96650.00;4982433;28;20065;-63
2021/07/16 01:23:54;;;;;;;12.00;4.43;;;;;;;19.19;63.44;96663.69;4983730;28;20092;-62
2021/07/16 01:26:21;;;;;;;4.63;3.80;;;;;;;19.02;63.72;96656.47;4981946;28;20060;-63
2021/07/16 01:28:49;;;;;;;6.60;4.00;;;;;;;18.99;63.78;96679.81;4982212;28;20062;-63
2021/07/16 01:31:16;;;;;;;8.65;3.92;;;;;;;18.93;63.85;96655.47;4983742;28;20061;-61
2021/07/16 01:33:43;;;;;;;8.98;4.07;;;;;;;18.50;64.61;96610.69;4982508;28;20058;-62
2021/07/16 01:36:10;;;;;;;7.10;3.85;;;;;;;18.89;64.32;96669.59;4982400;28;20054;-62
2021/07/16 01:38:36;;;;;;;7.50;3.72;;;;;;;18.85;65.08;96668.88;4982208;28;20069;-62
2021/07/16 01:41:04;;;;;;;5.65;3.72;;;;;;;18.94;64.58;96660.66;4983518;28;20210;-63
2021/07/16 01:43:31;;;;;;;10.05;4.53;;;;;;;18.95;65.67;96673.47;4986968;28;20057;-63
2021/07/16 01:45:58;;;;;;;5.20;3.97;;;;;;;19.05;65.49;96655.59;4986834;28;20476;-65
2021/07/16 01:48:25;;;;;;;4.82;3.95;;;;;;;19.06;65.61;96657.16;4985612;28;20597;-62
2021/07/16 01:50:52;;;;;;;8.93;4.63;;;;;;;19.04;65.92;96648.41;4987488;28;20133;-63
2021/07/16 01:53:20;;;;;;;12.75;4.32;;;;;;;18.89;64.95;96613.44;4987363;28;20054;-63
2021/07/16 01:55:47;;;;;;;5.43;3.63;;;;;;;19.30;63.55;96650.22;4987360;28;20047;-62
2021/07/16 01:58:15;;;;;;;7.38;4.40;;;;;;;19.17;63.25;96646.50;4985310;28;20054;-63
2021/07/16 02:00:45;;;;;;;4.40;3.67;;;;;;;19.08;63.66;96651.13;4987271;28;20050;-61
2021/07/16 02:03:15;;;;;;;7.05;4.10;;;;;;;19.02;64.26;96655.66;4987114;28;20547;-61
2021/07/16 02:05:44;;;;;;;8.57;4.15;;;;;;;18.99;65.34;96648.91;4985415;28;20062;-64
2021/07/16 02:08:14;;;;;;;8.05;4.25;;;;;;;19.04;65.65;96647.63;5007264;28;20065;-63
2021/07/16 02:10:46;;;;;;;10.50;4.60;;;;;;;19.02;65.42;96645.25;5005401;28;20065;-63
2021/07/16 02:13:13;;;;;;;10.77;4.53;;;;;;;18.95;64.97;96634.16;5005082;28;20077;-60
2021/07/16 02:15:43;;;;;;;11.15;4.00;;;;;;;18.74;64.88;96606.59;5004685;28;20532;-59
2021/07/16 02:18:10;;;;;;;8.63;4.97;;;;;;;18.80;64.17;96615.25;5004566;28;20119;-61
2021/07/16 02:20:40;;;;;;;10.15;4.40;;;;;;;18.16;64.40;96526.06;5006092;28;20063;-62
2021/07/16 02:23:18;;;;;;;10.85;4.57;;;;;;;17.99;64.38;96528.00;5004808;28;20088;-61
2021/07/16 02:25:46;;;;;;;10.73;4.32;;;;;;;18.83;64.42;96660.09;5005194;28;20120;-63
2021/07/16 02:28:22;;;;;;;6.32;4.57;;;;;;;18.74;64.59;96645.88;5005678;28;20128;-62
2021/07/16 02:30:49;;;;;;;9.95;4.90;;;;;;;18.64;64.97;96652.47;5006131;28;20050;-61
2021/07/16 02:33:17;;;;;;;10.38;4.38;;;;;;;18.38;65.01;96605.75;5004454;28;20064;-61
2021/07/16 02:35:44;;;;;;;8.48;3.88;;;;;;;18.43;64.92;96615.69;5006026;28;20058;-61
2021/07/16 02:38:12;;;;;;;7.80;4.50;;;;;;;18.58;65.23;96643.00;5004523;28;20049;-61
2021/07/16 02:40:39;;;;;;;8.52;4.78;;;;;;;18.67;65.19;96651.63;5005973;28;20191;-61
2021/07/16 02:43:06;;;;;;;10.80;4.47;;;;;;;18.68;65.79;96642.00;5004462;28;20168;-60
2021/07/16 02:45:33;;;;;;;10.05;4.30;;;;;;;18.76;65.25;96649.00;5004220;28;20428;-59
2021/07/16 02:48:00;;;;;;;7.55;4.40;;;;;;;18.31;65.47;96589.03;5004189;28;20512;-62
2021/07/16 02:50:39;;;;;;;10.25;4.55;;;;;;;18.65;65.57;96640.03;5005454;28;20531;-62
2021/07/16 02:53:08;;;;;;;6.82;4.43;;;;;;;18.61;65.37;96653.34;5004932;28;20062;-60
2021/07/16 02:55:35;;;;;;;11.13;4.53;;;;;;;18.56;65.56;96639.81;5003996;28;20050;-60
2021/07/16 02:58:03;;;;;;;7.75;4.45;;;;;;;18.42;65.92;96656.16;5004446;28;20142;-60
2021/07/16 03:00:31;;;;;;;7.75;4.63;;;;;;;18.41;65.78;96655.38;5005972;28;20050;-61
2021/07/16 03:02:59;;;;;;;8.38;4.65;;;;;;;18.50;65.93;96664.00;5003412;28;20169;-60
2021/07/16 03:05:29;;;;;;;7.03;4.53;;;;;;;18.52;65.44;96667.16;5003822;28;20058;-60
2021/07/16 03:07:56;;;;;;;6.03;4.25;;;;;;;18.57;65.17;96652.66;5003990;28;20057;-60
2021/07/16 03:10:29;;;;;;;7.05;4.38;;;;;;;18.60;65.47;96656.59;5003586;28;20367;-60
2021/07/16 03:12:57;;;;;;;6.75;4.35;;;;;;;18.68;65.42;96652.41;5005487;28;20140;-61
2021/07/16 03:15:25;;;;;;;6.10;4.32;;;;;;;18.66;65.03;96655.66;5003396;28;20072;-61
2021/07/16 03:17:52;;;;;;;7.20;4.45;;;;;;;18.38;65.39;96621.75;5005262;28;20053;-61
2021/07/16 03:20:23;;;;;;;7.97;4.18;;;;;;;18.64;65.15;96663.72;5005579;28;20083;-60
2021/07/16 03:22:51;;;;;;;9.50;4.53;;;;;;;18.67;64.87;96657.22;5003526;28;20058;-59
2021/07/16 03:25:20;;;;;;;8.73;4.43;;;;;;;18.51;65.72;96674.00;5004817;28;20061;-60
2021/07/16 03:27:48;;;;;;;8.25;4.50;;;;;;;18.49;65.64;96667.25;5003609;28;20053;-60
2021/07/16 03:30:20;;;;;;;13.20;4.80;;;;;;;18.49;65.70;96665.22;5003535;28;20053;-59
2021/07/16 03:32:47;;;;;;;9.90;4.50;;;;;;;18.47;65.77;96670.47;5003699;28;20049;-59
2021/07/16 03:35:14;;;;;;;9.82;4.25;;;;;;;18.47;65.79;96676.09;5005267;28;20062;-59
2021/07/16 03:37:43;;;;;;;7.90;4.45;;;;;;;18.61;65.38;96681.41;5005335;28;20072;-59
2021/07/16 03:40:12;;;;;;;9.32;4.75;;;;;;;18.55;65.96;96671.91;5005049;28;20140;-60
2021/07/16 03:42:40;;;;;;;13.60;5.28;;;;;;;18.57;66.67;96675.09;5004680;28;20160;-60
2021/07/16 03:45:12;;;;;;;11.65;5.82;;;;;;;18.66;67.80;96669.69;5004526;28;20137;-59
2021/07/16 03:47:43;;;;;;;10.60;5.97;;;;;;;18.77;67.49;96677.88;5004659;28;20089;-62
2021/07/16 03:50:11;;;;;;;11.60;5.60;;;;;;;18.48;67.82;96632.78;5004426;28;20129;-61
2021/07/16 03:52:39;;;;;;;10.27;6.47;;;;;;;18.52;68.10;96647.53;5004608;28;20465;-61
2021/07/16 03:55:09;;;;;;;7.68;6.35;;;;;;;18.64;69.42;96690.97;5003305;28;20080;-60
2021/07/16 03:57:40;;;;;;;8.00;6.22;;;;;;;18.84;68.52;96695.34;5002759;28;20595;-60
2021/07/16 04:00:08;;;;;;;7.35;5.55;;;;;;;18.62;68.03;96654.94;5004574;28;20058;-60
2021/07/16 04:02:35;;;;;;;7.95;5.30;;;;;;;19.00;68.24;96681.38;5002832;28;20490;-61
2021/07/16 04:05:02;;;;;;;8.57;5.95;;;;;;;19.32;66.11;96703.97;5002717;28;20085;-61
2021/07/16 04:07:31;;;;;;;10.20;5.80;;;;;;;19.54;65.06;96685.38;5003834;28;20053;-61
2021/07/16 04:09:58;;;;;;;8.68;5.32;;;;;;;19.79;63.95;96686.81;5002484;28;20131;-60
2021/07/16 04:12:24;;;;;;;11.52;5.50;;;;;;;19.85;64.07;96679.44;5004239;28;20054;-60
2021/07/16 04:14:53;;;;;;;10.48;5.38;;;;;;;20.01;62.87;96676.59;5002562;28;20080;-61
2021/07/16 04:17:22;;;;;;;7.10;4.80;;;;;;;20.24;61.01;96676.41;5002542;28;20054;-60
2021/07/16 04:19:49;;;;;;;11.15;5.35;;;;;;;20.28;60.66;96680.72;5002907;28;20054;-61
2021/07/16 04:22:18;;;;;;;16.20;5.25;;;;;;;20.16;60.46;96649.72;5003796;28;20581;-61
2021/07/16 04:24:46;;;;;;;22.27;5.00;;;;;;;20.32;59.95;96669.38;5004170;28;20066;-61
2021/07/16 04:27:14;;;;;;;21.00;5.18;;;;;;;20.55;59.44;96667.09;5001761;28;20153;-62
2021/07/16 04:29:42;;;;;;;15.00;5.00;;;;;;;20.80;59.08;96666.41;5002336;28;20046;-60
2021/07/16 04:32:11;;;;;;;16.80;5.20;;;;;;;20.23;59.25;96636.22;5002580;28;20114;-60
2021/07/16 04:34:39;;;;;;;10.05;4.93;;;;;;;21.07;57.92;96674.50;5003900;28;20076;-61
2021/07/16 04:37:07;;;;;;;11.57;4.45;;;;;;;20.97;57.57;96659.50;5002289;28;20057;-60
2021/07/16 04:39:35;;;;;;;11.52;4.65;;;;;;;21.13;57.22;96670.69;5003911;28;20058;-59
2021/07/16 04:42:02;;;;;;;12.15;5.43;;;;;;;21.27;56.32;96661.78;5002248;28;20053;-62
2021/07/16 04:44:32;;;;;;;9.27;4.93;;;;;;;21.28;55.72;96640.00;5003103;28;20478;-61
2021/07/16 04:47:00;;;;;;;14.57;5.32;;;;;;;21.66;55.59;96683.88;5002011;28;20054;-62
2021/07/16 04:49:27;;;;;;;11.38;4.72;;;;;;;21.64;55.38;96658.16;5003643;28;20500;-61
2021/07/16 04:51:54;;;;;;;13.80;5.68;;;;;;;21.87;54.24;96676.78;5034689;28;20053;-61
2021/07/16 04:54:22;;;;;;;14.65;5.20;;;;;;;21.92;53.82;96657.28;5003569;28;20112;-62
2021/07/16 04:56:49;;;;;;;10.48;4.82;;;;;;;21.85;54.50;96651.88;5034914;28;20050;-63
2021/07/16 04:59:15;;;;;;;9.20;4.47;;;;;;;22.12;53.28;96629.56;5003276;28;20543;-62
2021/07/16 05:01:42;;;;;;;13.25;5.07;;;;;;;22.41;52.20;96644.25;5003625;28;20755;-62
2021/07/16 05:04:10;;;;;;;11.20;4.50;;;;;;;22.86;52.40;96662.84;5003456;28;20058;-63
2021/07/16 05:06:37;;;;;;;9.55;4.40;;;;;;;23.06;52.00;96671.75;5002800;28;20155;-63
2021/07/16 05:09:04;;;;;;;11.98;4.57;;;;;;;23.23;51.74;96665.44;5003552;28;20437;-63
2021/07/16 05:11:31;;;;;;;10.65;5.20;;;;;;;23.31;51.97;96671.63;5003497;28;20058;-63
2021/07/16 05:13:58;;;;;;;10.65;4.78;;;;;;;23.10;51.10;96594.06;5001685;28;20443;-62
2021/07/16 05:16:25;;;;;;;10.20;4.88;;;;;;;23.53;49.98;96666.69;5004878;28;20057;-63
2021/07/16 05:18:52;;;;;;;12.13;4.80;;;;;;;23.60;49.58;96627.59;5007603;28;20454;-62
2021/07/16 05:21:19;;;;;;;9.20;5.10;;;;;;;23.84;50.06;96661.78;5006143;28;20140;-61
2021/07/16 05:23:46;;;;;;;8.55;5.50;;;;;;;23.99;50.14;96665.63;5007309;28;20053;-62
2021/07/16 05:26:13;;;;;;;10.90;5.45;;;;;;;24.26;49.93;96662.88;5005233;28;20535;-63
2021/07/16 05:28:40;;;;;;;11.85;5.18;;;;;;;24.32;49.36;96658.16;5006810;28;20057;-65
2021/07/16 05:31:08;;;;;;;10.30;5.10;;;;;;;24.52;48.64;96652.81;5006874;28;20292;-62
2021/07/16 05:33:35;;;;;;;11.90;5.72;;;;;;;24.72;47.51;96661.63;5005531;28;20483;-63
2021/07/16 05:36:02;;;;;;;8.90;5.00;;;;;;;24.67;47.17;96625.47;5005113;28;20057;-60
2021/07/16 05:38:29;;;;;;;12.32;6.10;;;;;;;24.94;45.97;96628.25;5007171;28;20061;-59
2021/07/16 05:40:56;;;;;;;10.05;6.03;;;;;;;24.57;46.18;96553.06;5006970;28;20053;-66
2021/07/16 05:43:23;;;;;;;7.35;5.95;;;;;;;25.33;44.69;96649.13;5005130;28;20402;-59
2021/07/16 05:45:49;;;;;;;10.00;6.70;;;;;;;24.56;44.83;96505.38;5006630;28;20055;-62
2021/07/16 05:48:16;;;;;;;8.25;7.20;;;;;;;25.85;43.60;96656.34;5006945;28;20616;-65
2021/07/16 05:50:46;;;;;;;17.60;7.95;;;;;;;25.85;43.52;96636.47;5006973;28;20054;-64
2021/07/16 05:53:13;;;;;;;11.25;8.57;;;;;;;24.86;43.26;96479.66;5005515;28;20075;-62
2021/07/16 05:55:40;;;;;;;16.65;8.82;;;;;;;26.03;42.94;96647.78;5006133;28;20046;-62
2021/07/16 05:58:07;;;;;;;14.90;9.10;;;;;;;25.70;41.88;96570.34;5006153;28;20081;-62
2021/07/16 06:00:35;;;;;;;13.52;7.85;;;;;;;26.28;41.01;96644.44;5006313;28;20530;-63
2021/07/16 06:03:03;;;;;;;12.10;7.00;;;;;;;26.40;40.85;96643.41;5006713;28;20066;-61
2021/07/16 06:05:32;;;;;;;11.35;7.68;;;;;;;25.79;42.49;96595.84;5006411;28;20053;-61
2021/07/16 06:08:00;;;;;;;13.48;8.30;;;;;;;26.17;41.80;96644.22;5006749;28;20139;-61
2021/07/16 06:10:27;;;;;;;18.17;12.77;;;;;;;26.21;41.02;96593.69;5005170;28;20045;-62
2021/07/16 06:12:54;;;;;;;10.48;8.80;;;;;;;26.58;40.93;96606.34;5004950;28;20057;-65
2021/07/16 06:15:21;;;;;;;8.52;7.63;;;;;;;26.22;39.88;96544.16;5004869;28;20065;-63
2021/07/16 06:17:48;;;;;;;10.07;7.18;;;;;;;26.41;38.96;96582.50;5006431;28;20049;-63
2021/07/16 06:20:15;;;;;;;8.50;7.20;;;;;;;26.83;38.55;96639.94;5006066;28;20057;-60
2021/07/16 06:22:43;;;;;;;8.25;6.03;;;;;;;26.16;36.31;96577.34;5006077;28;20053;-61
2021/07/16 06:25:11;;;;;;;10.48;7.03;;;;;;;26.91;38.94;96646.00;5006357;28;20045;-62
2021/07/16 06:27:39;;;;;;;12.80;10.70;;;;;;;26.50;41.62;96548.31;5005617;28;20058;-63
2021/07/16 06:30:08;;;;;;;13.88;11.07;;;;;;;26.64;43.06;96612.94;5005950;28;20061;-63
2021/07/16 06:32:35;;;;;;;19.02;11.32;;;;;;;26.88;40.87;96619.38;5005855;28;20645;-61
2021/07/16 06:35:04;;;;;;;15.13;9.85;;;;;;;26.92;40.22;96625.63;5004717;28;20157;-59
2021/07/16 06:37:30;;;;;;;9.57;7.97;;;;;;;26.43;40.49;96608.38;5006149;28;20061;-62
2021/07/16 06:39:57;;;;;;;10.95;7.70;;;;;;;26.56;39.89;96575.56;5005625;28;20061;-64
2021/07/16 06:42:24;;;;;;;12.43;7.90;;;;;;;26.72;39.81;96565.81;5005967;28;20057;-64
2021/07/16 06:44:51;;;;;;;11.80;7.07;;;;;;;27.09;39.74;96612.53;5005627;28;20136;-64
2021/07/16 06:47:18;;;;;;;13.25;6.82;;;;;;;27.32;39.37;96631.56;5006249;28;20076;-62
2021/07/16 06:49:46;;;;;;;10.32;5.85;;;;;;;26.92;39.14;96597.19;5004344;28;20054;-62
2021/07/16 06:52:14;;;;;;;9.07;6.40;;;;;;;27.47;39.52;96623.81;5005010;28;20485;-62
2021/07/16 06:54:41;;;;;;;10.98;6.18;;;;;;;27.61;39.40;96630.75;5004029;28;20056;-67
2021/07/16 06:57:08;;;;;;;9.77;5.97;;;;;;;27.68;38.65;96631.13;5004219;28;20057;-64
2021/07/16 06:59:35;;;;;;;10.38;5.53;;;;;;;27.98;37.40;96611.94;5003433;28;20060;-64
2021/07/16 07:02:02;;;;;;;6.60;5.68;;;;;;;28.33;37.08;96623.31;5005062;28;20424;-69
2021/07/16 07:04:29;;;;;;;11.52;5.68;;;;;;;28.63;37.01;96636.19;5005533;28;20053;-66
2021/07/16 07:06:56;;;;;;;9.32;4.93;;;;;;;28.85;35.78;96619.31;5005641;28;20053;-62
2021/07/16 07:09:24;;;;;;;9.10;5.13;;;;;;;28.96;36.78;96616.59;5005275;28;20057;-62
2021/07/16 07:11:51;;;;;;;7.30;5.50;;;;;;;28.88;35.68;96584.09;5004871;28;20489;-65
2021/07/16 07:14:18;;;;;;;12.73;7.28;;;;;;;28.60;36.18;96509.66;5002829;28;20057;-63
2021/07/16 07:16:44;;;;;;;10.35;5.35;;;;;;;28.99;34.44;96573.56;5005229;28;20056;-62
2021/07/16 07:19:11;;;;;;;16.55;5.55;;;;;;;29.35;34.64;96600.66;5005157;28;20053;-64
2021/07/16 07:21:38;;;;;;;6.95;4.95;;;;;;;29.69;34.59;96596.78;5004532;28;20060;-64
2021/07/16 07:24:05;;;;;;;10.18;6.97;;;;;;;29.43;35.17;96613.94;5003547;28;20131;-60
2021/07/16 07:26:33;;;;;;;10.25;5.63;;;;;;;28.44;35.26;96540.81;5004454;28;20139;-62
2021/07/16 07:29:00;;;;;;;11.32;6.88;;;;;;;28.94;35.20;96559.25;5009393;28;20144;-61
2021/07/16 07:31:27;;;;;;;11.32;5.57;;;;;;;29.69;33.38;96602.50;5027517;28;20586;-62
2021/07/16 07:33:54;;;;;;;8.27;6.30;;;;;;;29.27;35.23;96576.72;5024901;28;20463;-62
2021/07/16 07:36:22;;;;;;;16.02;7.00;;;;;;;29.66;33.89;96600.66;5024325;28;20528;-61
2021/07/16 07:38:48;;;;;;;8.57;6.53;;;;;;;29.76;34.04;96595.56;5024229;28;20487;-61
2021/07/16 07:41:15;;;;;;;12.93;5.07;;;;;;;29.96;33.72;96598.28;5024178;28;20049;-63
2021/07/16 07:43:42;;;;;;;7.20;5.53;;;;;;;29.68;33.48;96515.28;5024653;28;20060;-63
2021/07/16 07:46:09;;;;;;;13.25;6.80;;;;;;;30.41;33.00;96589.50;5024122;28;20097;-61
2021/07/16 07:48:35;;;;;;;11.07;5.30;;;;;;;29.12;34.61;96573.19;5024040;28;20531;-62
2021/07/16 07:51:02;;;;;;;10.82;6.30;;;;;;;29.88;34.29;96589.41;5024167;28;20256;-64
2021/07/16 07:53:29;;;;;;;9.88;4.95;;;;;;;30.02;34.14;96585.59;5022835;28;20068;-63
2021/07/16 07:55:56;;;;;;;10.63;6.47;;;;;;;30.27;33.77;96581.09;5024920;28;20447;-62
2021/07/16 07:58:23;;;;;;;9.85;5.40;;;;;;;30.00;33.58;96576.78;5024525;28;20076;-61
2021/07/16 08:00:50;;;;;;;8.80;5.55;;;;;;;30.30;33.29;96583.72;5023984;28;20437;-63
2021/07/16 08:03:17;;;;;;;17.42;8.57;;;;;;;30.49;33.37;96579.09;5023477;28;20140;-60
2021/07/16 08:05:44;;;;;;;10.57;5.60;;;;;;;30.81;32.19;96580.53;5023905;28;20053;-62
2021/07/16 08:08:10;;;;;;;12.77;6.07;;;;;;;30.35;33.33;96580.06;5022133;28;20053;-60
2021/07/16 08:10:37;;;;;;;6.80;5.43;;;;;;;30.17;33.04;96574.78;5022233;28;20495;-63
2021/07/16 08:13:04;;;;;;;7.22;4.50;;;;;;;29.23;34.37;96530.50;5023987;28;20564;-60
2021/07/16 08:15:31;;;;;;;6.60;4.28;;;;;;;29.93;33.00;96554.38;5022259;28;20061;-61
2021/07/16 08:17:59;;;;;;;7.70;5.22;;;;;;;30.05;31.59;96584.56;5024445;28;20175;-65
2021/07/16 08:20:26;;;;;;;10.45;5.70;;;;;;;29.61;32.57;96554.94;5023786;28;20079;-61
2021/07/16 08:22:53;;;;;;;5.35;4.65;;;;;;;29.62;32.09;96579.31;5022274;28;20054;-62
2021/07/16 08:25:20;;;;;;;6.97;4.70;;;;;;;29.49;32.12;96543.44;5022133;28;20060;-63
2021/07/16 08:27:48;;;;;;;10.80;5.15;;;;;;;29.51;31.83;96522.94;5022020;28;20575;-61
2021/07/16 08:30:15;;;;;;;11.18;4.57;;;;;;;30.31;32.31;96570.97;5023385;28;20611;-60
2021/07/16 08:32:43;;;;;;;6.03;4.38;;;;;;;29.61;31.60;96569.97;5023430;28;20053;-61
2021/07/16 08:35:11;;;;;;;6.82;4.70;;;;;;;28.95;32.32;96533.09;5023447;28;20045;-61
2021/07/16 08:37:38;;;;;;;7.97;5.28;;;;;;;29.76;32.49;96564.94;5023503;28;20431;-60
2021/07/16 08:40:06;;;;;;;12.52;6.60;;;;;;;29.79;31.58;96534.56;5022483;28;20060;-62
2021/07/16 08:42:34;;;;;;;8.90;5.18;;;;;;;29.68;32.51;96554.47;5023726;28;20058;-62
2021/07/16 08:45:06;;;;;;;8.55;5.10;;;;;;;30.20;32.86;96562.31;5023125;28;20049;-62
2021/07/16 08:47:33;;;;;;;9.38;4.82;;;;;;;30.36;32.42;96558.78;5023118;28;20075;-62
2021/07/16 08:50:03;;;;;;;10.48;6.18;;;;;;;30.43;32.06;96563.25;5023039;28;20053;-61
2021/07/16 08:52:30;;;;;;;9.95;4.97;;;;;;;30.16;32.82;96561.75;5022073;28;20053;-61
2021/07/16 08:55:00;;;;;;;20.45;10.02;;;;;;;30.00;32.73;96518.84;5023087;28;20045;-62
2021/07/16 08:57:29;;;;;;;13.48;6.55;;;;;;;30.46;32.32;96551.53;5021557;28;20127;-62
2021/07/16 08:59:56;;;;;;;12.23;5.03;;;;;;;29.52;32.87;96495.94;5022963;28;20049;-62
2021/07/16 09:02:33;;;;;;;9.38;4.32;;;;;;;30.41;32.27;96549.47;5023599;28;20073;-63
2021/07/16 09:05:07;;;;;;;7.95;6.85;;;;;;;30.07;32.83;96456.28;5022828;28;20573;-61
2021/07/16 09:07:42;;;;;;;;;;;;;;;30.73;31.79;96545.13;5023028;28;20065;-62
2021/07/16 09:10:11;;;;;;;23.10;16.85;;;;;;;30.51;32.97;96550.78;5022854;28;19932;-62
2021/07/16 09:12:39;;;;;;;12.95;10.10;;;;;;;30.82;32.58;96544.94;5022758;28;20444;-62
2021/07/16 09:15:10;;;;;;;9.20;5.25;;;;;;;30.84;32.16;96536.59;5022704;28;20467;-62
2021/07/16 09:17:42;;;;;;;10.38;6.95;;;;;;;31.06;32.10;96535.88;5021467;28;20505;-62
2021/07/16 09:20:10;;;;;;;7.40;4.90;;;;;;;31.34;31.60;96533.03;5023016;28;20061;-62
2021/07/16 09:22:37;;;;;;;7.75;5.05;;;;;;;30.80;32.56;96504.63;5023348;28;20148;-62
2021/07/16 09:25:05;;;;;;;9.57;5.40;;;;;;;31.14;31.89;96519.75;5021555;28;20080;-63
2021/07/16 09:27:53;;;;;;;9.82;5.47;;;;;;;31.35;32.00;96517.41;5021257;28;20134;-63
2021/07/16 09:30:23;;;;;;;11.07;5.13;;;;;;;31.45;32.95;96516.63;5015129;28;20053;-63
2021/07/16 09:33:04;;;;;;;12.07;5.65;;;;;;;31.66;32.86;96508.53;5022296;28;20145;-64
2021/07/16 09:35:38;;;;;;;6.72;5.57;;;;;;;31.43;31.98;96509.84;5022556;28;20049;-63
2021/07/16 09:38:09;;;;;;;;;;;;;;;31.29;32.64;96519.47;5021885;28;20058;-64
2021/07/16 09:41:02;;;;;;;5.75;4.93;;;;;;;31.32;32.54;96495.53;5021820;28;19925;-62
2021/07/16 09:43:30;;;;;;;;;;;;;;;31.79;32.72;96517.38;5020073;28;20053;-62
2021/07/16 09:45:59;;;;;;;12.18;6.57;;;;;;;31.50;32.19;96506.47;5022905;28;19977;-63
2021/07/16 09:48:34;;;;;;;9.27;5.38;;;;;;;31.40;32.74;96508.03;5022660;28;20508;-62
2021/07/16 09:51:20;;;;;;;9.00;5.30;;;;;;;31.65;33.02;96501.22;5022346;28;20072;-64
2021/07/16 09:53:52;;;;;;;10.35;6.80;;;;;;;31.50;33.36;96503.59;5022945;28;20460;-62
2021/07/16 09:56:24;;;;;;;19.37;5.50;;;;;;;31.79;32.72;96500.19;5053817;28;20064;-62
2021/07/16 09:59:02;;;;;;;14.32;6.20;;;;;;;31.90;33.89;96506.66;5021216;28;20304;-62
2021/07/16 10:01:32;;;;;;;10.68;6.07;;;;;;;31.70;33.78;96486.13;5054322;28;20057;-62
2021/07/16 10:03:59;;;;;;;10.90;5.93;;;;;;;31.75;33.54;96428.03;5025770;28;20547;-64
2021/07/16 10:06:28;;;;;;;11.05;5.57;;;;;;;32.26;33.14;96499.00;5024411;28;20068;-63
2021/07/16 10:08:56;;;;;;;12.93;6.05;;;;;;;32.23;33.52;96486.47;5024063;28;20068;-64
2021/07/16 10:11:26;;;;;;;9.13;5.72;;;;;;;32.23;33.93;96472.16;5024633;28;20053;-62
2021/07/16 10:13:55;;;;;;;10.50;5.72;;;;;;;32.74;32.80;96487.81;5023977;28;20474;-65
2021/07/16 10:16:23;;;;;;;11.38;5.40;;;;;;;32.89;33.27;96488.28;5025398;28;20053;-63
2021/07/16 10:18:52;;;;;;;11.93;6.15;;;;;;;32.72;33.66;96484.69;5024866;28;20217;-62
2021/07/16 10:21:20;;;;;;;7.45;5.38;;;;;;;32.31;33.04;96455.19;5023540;28;20126;-61
2021/07/16 10:23:49;;;;;;;11.02;6.35;;;;;;;32.89;32.35;96471.03;5025025;28;20508;-65
2021/07/16 10:26:18;;;;;;;14.18;6.22;;;;;;;32.76;33.53;96485.19;5024196;28;20052;-61
2021/07/16 10:28:45;;;;;;;10.52;5.88;;;;;;;32.73;32.67;96431.75;5025464;28;20070;-62
2021/07/16 10:31:35;;;;;;;12.90;6.95;;;;;;;32.66;33.10;96429.44;5056562;28;20057;-64
2021/07/16 10:34:14;;;;;;;8.68;5.90;;;;;;;32.75;33.60;96457.81;5023177;28;20076;-63
2021/07/16 10:36:44;;;;;;;7.72;6.78;;;;;;;32.94;32.80;96450.13;5024437;28;20059;-63
2021/07/16 10:39:13;;;;;;;10.35;5.63;;;;;;;32.49;31.91;96422.25;5055952;28;20052;-64
2021/07/16 10:41:41;;;;;;;13.85;7.68;;;;;;;33.03;32.61;96411.69;5025824;28;20049;-62
2021/07/16 10:44:09;;;;;;;16.85;6.45;;;;;;;33.42;31.84;96460.94;5025773;28;20108;-65
2021/07/16 10:46:38;;;;;;;7.40;5.47;;;;;;;32.39;33.08;96464.03;5024976;28;20049;-63
2021/07/16 10:51:28;;;;;;;9.35;5.72;;;;;;;33.70;29.25;96442.09;5120738;27;21271;-63
2021/07/16 10:53:57;;;;;;;11.25;5.90;;;;;;;34.34;28.40;96436.66;5112022;27;20059;-62
2021/07/16 10:56:44;;;;;;;11.05;5.32;;;;;;;34.57;28.09;96435.06;5100306;28;20075;-61
2021/07/16 10:59:46;;;;;;;14.57;6.45;;;;;;;34.92;27.79;96434.81;5100837;28;20087;-61
2021/07/16 11:02:45;;;;;;;7.68;6.25;;;;;;;35.25;26.74;96434.25;5099577;28;20131;-63
2021/07/16 11:05:31;;;;;;;10.40;6.05;;;;;;;35.32;25.83;96416.31;5098660;28;20055;-61
2021/07/16 11:08:02;;;;;;;6.13;5.53;;;;;;;35.27;26.95;96425.81;5079937;28;20076;-63
2021/07/16 11:10:44;;;;;;;7.28;5.88;;;;;;;35.57;27.13;96414.81;5097399;28;20048;-68
2021/07/16 11:13:39;;;;;;;10.82;5.50;;;;;;;35.41;27.39;96415.91;5097178;28;20087;-63
2021/07/16 11:16:31;;;;;;;10.93;5.55;;;;;;;35.59;27.42;96417.94;5100665;28;20091;-61
2021/07/16 11:19:06;;;;;;;7.45;5.47;;;;;;;35.25;27.33;96419.06;5091575;28;20076;-63
2021/07/16 11:21:39;;;;;;;10.57;5.63;;;;;;;35.28;27.06;96415.88;5095469;28;20144;-62
2021/07/16 11:24:19;;;;;;;12.63;5.80;;;;;;;35.54;27.88;96410.16;5069886;28;20516;-62
2021/07/16 11:26:55;;;;;;;6.88;5.60;;;;;;;35.59;27.50;96417.16;5040015;28;20088;-61
2021/07/16 11:29:25;;;;;;;9.98;5.68;;;;;;;35.63;27.44;96395.31;5038613;28;20049;-63
2021/07/16 11:32:09;;;;;;;9.10;5.88;;;;;;;35.99;27.42;96408.00;5019946;28;20049;-61
2021/07/16 11:34:38;;;;;;;6.90;5.82;;;;;;;36.12;26.46;96425.25;5035452;28;20057;-63
2021/07/16 11:37:05;;;;;;;12.20;6.63;;;;;;;36.04;26.51;96418.63;5036867;28;20496;-64
2021/07/16 11:39:38;;;;;;;12.70;8.10;;;;;;;36.23;26.43;96407.72;5039254;28;20053;-65